sensor_id;sensor_type;location;lat;lon;timestamp;temperature;humidity
58933;DHT22;44716;51.022;6.818;2023-03-22T00:01:20;23.40;56.60
58933;DHT22;44716;51.022;6.818;2023-03-22T00:03:46;23.40;56.60
58933;DHT22;44716;51.022;6.818;2023-03-22T00:06:12;23.30;56.10
58933;DHT22;44716;51.022;6.818;2023-03-22T00:08:37;23.30;56.50
58933;DHT22;44716;51.022;6.818;2023-03-22T00:11:03;23.30;56.00
58933;DHT22;44716;51.022;6.818;2023-03-22T00:13:29;23.30;56.40
58933;DHT22;44716;51.022;6.818;2023-03-22T00:15:55;23.30;56.60
58933;DHT22;44716;51.022;6.818;2023-03-22T00:18:22;23.30;56.50
58933;DHT22;44716;51.022;6.818;2023-03-22T00:20:51;23.30;56.60
58933;DHT22;44716;51.022;6.818;2023-03-22T00:23:17;23.30;56.40
58933;DHT22;44716;51.022;6.818;2023-03-22T00:25:43;23.20;56.50
58933;DHT22;44716;51.022;6.818;2023-03-22T00:28:09;23.20;56.60
58933;DHT22;44716;51.022;6.818;2023-03-22T00:30:35;23.20;56.60
58933;DHT22;44716;51.022;6.818;2023-03-22T00:33:00;23.20;56.60
58933;DHT22;44716;51.022;6.818;2023-03-22T00:35:29;23.10;56.50
58933;DHT22;44716;51.022;6.818;2023-03-22T00:37:55;23.10;56.60
58933;DHT22;44716;51.022;6.818;2023-03-22T00:40:21;23.10;56.50
58933;DHT22;44716;51.022;6.818;2023-03-22T00:42:47;23.10;56.60
58933;DHT22;44716;51.022;6.818;2023-03-22T00:45:13;23.10;56.60
58933;DHT22;44716;51.022;6.818;2023-03-22T00:47:38;23.00;56.60
58933;DHT22;44716;51.022;6.818;2023-03-22T00:50:04;23.00;56.70
58933;DHT22;44716;51.022;6.818;2023-03-22T00:52:30;23.00;56.80
58933;DHT22;44716;51.022;6.818;2023-03-22T00:54:56;23.00;56.70
58933;DHT22;44716;51.022;6.818;2023-03-22T00:57:21;23.00;56.80
58933;DHT22;44716;51.022;6.818;2023-03-22T00:59:48;23.00;56.80
58933;DHT22;44716;51.022;6.818;2023-03-22T01:02:17;23.00;56.80
58933;DHT22;44716;51.022;6.818;2023-03-22T01:04:42;22.90;56.80
58933;DHT22;44716;51.022;6.818;2023-03-22T01:07:14;22.90;56.90
58933;DHT22;44716;51.022;6.818;2023-03-22T01:09:48;22.80;56.80
58933;DHT22;44716;51.022;6.818;2023-03-22T01:12:18;22.80;56.80
58933;DHT22;44716;51.022;6.818;2023-03-22T01:14:44;22.80;56.90
58933;DHT22;44716;51.022;6.818;2023-03-22T01:17:10;22.80;56.90
58933;DHT22;44716;51.022;6.818;2023-03-22T01:19:38;22.80;57.00
58933;DHT22;44716;51.022;6.818;2023-03-22T01:22:05;22.80;57.00
58933;DHT22;44716;51.022;6.818;2023-03-22T01:24:31;22.80;57.10
58933;DHT22;44716;51.022;6.818;2023-03-22T01:26:56;22.70;57.10
58933;DHT22;44716;51.022;6.818;2023-03-22T01:29:23;22.70;57.00
58933;DHT22;44716;51.022;6.818;2023-03-22T01:31:48;22.70;57.10
58933;DHT22;44716;51.022;6.818;2023-03-22T01:34:14;22.70;57.10
58933;DHT22;44716;51.022;6.818;2023-03-22T01:36:40;22.70;57.20
58933;DHT22;44716;51.022;6.818;2023-03-22T01:39:05;22.70;57.20
58933;DHT22;44716;51.022;6.818;2023-03-22T01:41:31;22.70;57.20
58933;DHT22;44716;51.022;6.818;2023-03-22T01:44:05;22.60;57.20
58933;DHT22;44716;51.022;6.818;2023-03-22T01:46:31;22.50;57.20
58933;DHT22;44716;51.022;6.818;2023-03-22T01:49:00;22.60;57.30
58933;DHT22;44716;51.022;6.818;2023-03-22T01:51:27;22.60;57.30
58933;DHT22;44716;51.022;6.818;2023-03-22T01:53:53;22.60;57.30
58933;DHT22;44716;51.022;6.818;2023-03-22T01:56:21;22.50;57.30
58933;DHT22;44716;51.022;6.818;2023-03-22T01:58:47;22.50;57.40
58933;DHT22;44716;51.022;6.818;2023-03-22T02:01:14;22.50;57.40
58933;DHT22;44716;51.022;6.818;2023-03-22T02:06:40;22.40;57.40
58933;DHT22;44716;51.022;6.818;2023-03-22T02:09:06;22.40;57.50
58933;DHT22;44716;51.022;6.818;2023-03-22T02:11:37;22.40;57.50
58933;DHT22;44716;51.022;6.818;2023-03-22T02:14:14;22.40;57.50
58933;DHT22;44716;51.022;6.818;2023-03-22T02:19:28;22.40;57.60
58933;DHT22;44716;51.022;6.818;2023-03-22T02:29:53;22.30;57.70
58933;DHT22;44716;51.022;6.818;2023-03-22T02:40:13;22.20;57.70
58933;DHT22;44716;51.022;6.818;2023-03-22T02:45:16;22.20;57.80
58933;DHT22;44716;51.022;6.818;2023-03-22T02:47:47;22.20;57.80
58933;DHT22;44716;51.022;6.818;2023-03-22T02:50:23;22.20;57.90
58933;DHT22;44716;51.022;6.818;2023-03-22T02:52:51;22.10;58.10
58933;DHT22;44716;51.022;6.818;2023-03-22T03:00:12;22.10;57.90
58933;DHT22;44716;51.022;6.818;2023-03-22T03:02:40;22.10;57.90
58933;DHT22;44716;51.022;6.818;2023-03-22T03:05:06;22.10;57.90
58933;DHT22;44716;51.022;6.818;2023-03-22T03:07:32;22.10;57.90
58933;DHT22;44716;51.022;6.818;2023-03-22T03:09:59;22.10;57.90
58933;DHT22;44716;51.022;6.818;2023-03-22T03:12:25;22.10;58.00
58933;DHT22;44716;51.022;6.818;2023-03-22T03:14:51;22.10;57.90
58933;DHT22;44716;51.022;6.818;2023-03-22T03:17:37;22.10;57.90
58933;DHT22;44716;51.022;6.818;2023-03-22T03:28:07;22.00;58.00
58933;DHT22;44716;51.022;6.818;2023-03-22T03:30:33;22.00;57.90
58933;DHT22;44716;51.022;6.818;2023-03-22T03:33:01;22.00;58.00
58933;DHT22;44716;51.022;6.818;2023-03-22T03:35:32;22.00;58.10
58933;DHT22;44716;51.022;6.818;2023-03-22T03:38:11;22.00;58.00
58933;DHT22;44716;51.022;6.818;2023-03-22T03:43:27;22.00;58.00
58933;DHT22;44716;51.022;6.818;2023-03-22T03:45:53;21.90;58.00
58933;DHT22;44716;51.022;6.818;2023-03-22T03:48:25;21.90;58.10
58933;DHT22;44716;51.022;6.818;2023-03-22T03:50:51;21.90;58.00
58933;DHT22;44716;51.022;6.818;2023-03-22T03:53:18;21.90;58.10
58933;DHT22;44716;51.022;6.818;2023-03-22T03:55:44;21.90;58.10
58933;DHT22;44716;51.022;6.818;2023-03-22T03:58:09;21.90;58.10
58933;DHT22;44716;51.022;6.818;2023-03-22T04:00:35;21.90;58.10
58933;DHT22;44716;51.022;6.818;2023-03-22T04:03:01;21.90;58.80
58933;DHT22;44716;51.022;6.818;2023-03-22T04:05:26;21.90;58.20
58933;DHT22;44716;51.022;6.818;2023-03-22T04:07:52;21.90;58.20
58933;DHT22;44716;51.022;6.818;2023-03-22T04:10:18;21.90;58.20
58933;DHT22;44716;51.022;6.818;2023-03-22T04:12:44;21.90;58.20
58933;DHT22;44716;51.022;6.818;2023-03-22T04:15:12;21.90;58.20
58933;DHT22;44716;51.022;6.818;2023-03-22T04:17:38;21.80;58.20
58933;DHT22;44716;51.022;6.818;2023-03-22T04:20:05;21.80;58.20
58933;DHT22;44716;51.022;6.818;2023-03-22T04:22:31;21.80;58.20
58933;DHT22;44716;51.022;6.818;2023-03-22T04:25:01;21.80;58.30
58933;DHT22;44716;51.022;6.818;2023-03-22T04:27:27;21.80;58.30
58933;DHT22;44716;51.022;6.818;2023-03-22T04:29:53;21.80;58.30
58933;DHT22;44716;51.022;6.818;2023-03-22T04:32:20;21.80;58.30
58933;DHT22;44716;51.022;6.818;2023-03-22T04:34:49;21.80;58.30
58933;DHT22;44716;51.022;6.818;2023-03-22T04:37:15;21.80;58.30
58933;DHT22;44716;51.022;6.818;2023-03-22T04:39:40;21.80;58.40
58933;DHT22;44716;51.022;6.818;2023-03-22T04:42:06;21.70;58.40
58933;DHT22;44716;51.022;6.818;2023-03-22T04:44:33;21.70;58.40
58933;DHT22;44716;51.022;6.818;2023-03-22T04:46:58;21.70;58.40
58933;DHT22;44716;51.022;6.818;2023-03-22T04:49:25;21.70;58.50
58933;DHT22;44716;51.022;6.818;2023-03-22T04:51:52;21.70;59.10
58933;DHT22;44716;51.022;6.818;2023-03-22T04:54:21;21.70;58.50
58933;DHT22;44716;51.022;6.818;2023-03-22T04:56:47;21.70;59.10
58933;DHT22;44716;51.022;6.818;2023-03-22T04:59:15;21.70;58.60
58933;DHT22;44716;51.022;6.818;2023-03-22T05:01:48;21.70;58.60
58933;DHT22;44716;51.022;6.818;2023-03-22T05:04:14;21.70;58.60
58933;DHT22;44716;51.022;6.818;2023-03-22T05:06:40;21.70;58.60
58933;DHT22;44716;51.022;6.818;2023-03-22T05:09:05;21.60;58.60
58933;DHT22;44716;51.022;6.818;2023-03-22T05:11:34;21.60;58.60
58933;DHT22;44716;51.022;6.818;2023-03-22T05:14:00;21.60;58.60
58933;DHT22;44716;51.022;6.818;2023-03-22T05:16:29;21.60;58.60
58933;DHT22;44716;51.022;6.818;2023-03-22T05:18:54;21.60;58.60
58933;DHT22;44716;51.022;6.818;2023-03-22T05:21:21;21.60;58.60
58933;DHT22;44716;51.022;6.818;2023-03-22T05:23:52;21.60;58.60
58933;DHT22;44716;51.022;6.818;2023-03-22T05:26:21;21.60;58.60
58933;DHT22;44716;51.022;6.818;2023-03-22T05:28:49;21.50;58.70
58933;DHT22;44716;51.022;6.818;2023-03-22T05:31:14;21.60;58.70
58933;DHT22;44716;51.022;6.818;2023-03-22T05:33:41;21.60;58.70
58933;DHT22;44716;51.022;6.818;2023-03-22T05:36:07;21.50;58.60
58933;DHT22;44716;51.022;6.818;2023-03-22T05:38:33;21.50;58.70
58933;DHT22;44716;51.022;6.818;2023-03-22T05:40:58;21.50;58.70
58933;DHT22;44716;51.022;6.818;2023-03-22T05:43:24;21.50;58.70
58933;DHT22;44716;51.022;6.818;2023-03-22T05:45:50;21.50;58.70
58933;DHT22;44716;51.022;6.818;2023-03-22T05:48:16;21.50;58.70
58933;DHT22;44716;51.022;6.818;2023-03-22T05:50:41;21.50;58.80
58933;DHT22;44716;51.022;6.818;2023-03-22T05:53:07;21.50;58.80
58933;DHT22;44716;51.022;6.818;2023-03-22T05:55:32;21.50;58.80
58933;DHT22;44716;51.022;6.818;2023-03-22T05:57:59;21.50;58.80
58933;DHT22;44716;51.022;6.818;2023-03-22T06:00:25;21.50;58.80
58933;DHT22;44716;51.022;6.818;2023-03-22T06:02:51;21.50;58.80
58933;DHT22;44716;51.022;6.818;2023-03-22T06:05:20;21.50;58.80
58933;DHT22;44716;51.022;6.818;2023-03-22T06:07:46;21.50;58.80
58933;DHT22;44716;51.022;6.818;2023-03-22T06:10:12;21.50;58.80
58933;DHT22;44716;51.022;6.818;2023-03-22T06:12:38;21.50;58.80
58933;DHT22;44716;51.022;6.818;2023-03-22T06:15:04;21.50;58.80
58933;DHT22;44716;51.022;6.818;2023-03-22T06:17:30;21.40;58.80
58933;DHT22;44716;51.022;6.818;2023-03-22T06:19:55;21.50;58.20
58933;DHT22;44716;51.022;6.818;2023-03-22T06:22:21;21.40;58.80
58933;DHT22;44716;51.022;6.818;2023-03-22T06:24:47;21.40;58.70
58933;DHT22;44716;51.022;6.818;2023-03-22T06:27:13;21.40;58.80
58933;DHT22;44716;51.022;6.818;2023-03-22T06:29:39;21.40;58.80
58933;DHT22;44716;51.022;6.818;2023-03-22T06:32:05;21.40;58.50
58933;DHT22;44716;51.022;6.818;2023-03-22T06:34:31;21.40;58.50
58933;DHT22;44716;51.022;6.818;2023-03-22T06:36:56;21.40;58.80
58933;DHT22;44716;51.022;6.818;2023-03-22T06:39:22;21.30;58.50
58933;DHT22;44716;51.022;6.818;2023-03-22T06:41:48;21.40;58.70
58933;DHT22;44716;51.022;6.818;2023-03-22T06:44:13;21.30;58.70
58933;DHT22;44716;51.022;6.818;2023-03-22T06:46:39;21.40;57.90
58933;DHT22;44716;51.022;6.818;2023-03-22T06:49:05;21.40;58.70
58933;DHT22;44716;51.022;6.818;2023-03-22T06:51:30;21.30;57.50
58933;DHT22;44716;51.022;6.818;2023-03-22T06:53:56;21.30;58.70
58933;DHT22;44716;51.022;6.818;2023-03-22T06:56:22;21.30;58.80
58933;DHT22;44716;51.022;6.818;2023-03-22T06:58:48;21.30;58.80
58933;DHT22;44716;51.022;6.818;2023-03-22T07:01:16;21.30;58.50
58933;DHT22;44716;51.022;6.818;2023-03-22T07:03:42;21.30;58.80
58933;DHT22;44716;51.022;6.818;2023-03-22T07:06:07;21.30;58.80
58933;DHT22;44716;51.022;6.818;2023-03-22T07:08:33;21.30;58.60
58933;DHT22;44716;51.022;6.818;2023-03-22T07:11:02;21.30;58.60
58933;DHT22;44716;51.022;6.818;2023-03-22T07:13:28;21.30;58.80
58933;DHT22;44716;51.022;6.818;2023-03-22T07:15:55;21.30;58.70
58933;DHT22;44716;51.022;6.818;2023-03-22T07:18:21;21.30;58.10
58933;DHT22;44716;51.022;6.818;2023-03-22T07:20:46;21.30;58.80
58933;DHT22;44716;51.022;6.818;2023-03-22T07:23:12;21.30;58.80
58933;DHT22;44716;51.022;6.818;2023-03-22T07:25:37;21.30;58.20
58933;DHT22;44716;51.022;6.818;2023-03-22T07:28:03;21.20;57.90
58933;DHT22;44716;51.022;6.818;2023-03-22T07:30:31;21.20;58.20
58933;DHT22;44716;51.022;6.818;2023-03-22T07:33:03;21.20;57.50
58933;DHT22;44716;51.022;6.818;2023-03-22T07:35:29;21.20;57.40
58933;DHT22;44716;51.022;6.818;2023-03-22T07:37:55;21.10;57.10
58933;DHT22;44716;51.022;6.818;2023-03-22T07:40:20;21.20;57.10
58933;DHT22;44716;51.022;6.818;2023-03-22T07:42:47;21.20;57.10
58933;DHT22;44716;51.022;6.818;2023-03-22T07:45:12;21.20;57.10
58933;DHT22;44716;51.022;6.818;2023-03-22T07:47:38;21.10;58.30
58933;DHT22;44716;51.022;6.818;2023-03-22T07:50:03;21.00;58.00
58933;DHT22;44716;51.022;6.818;2023-03-22T07:52:29;21.00;58.60
58933;DHT22;44716;51.022;6.818;2023-03-22T07:54:55;21.00;58.40
58933;DHT22;44716;51.022;6.818;2023-03-22T07:57:23;21.00;58.40
58933;DHT22;44716;51.022;6.818;2023-03-22T07:59:48;21.00;58.00
58933;DHT22;44716;51.022;6.818;2023-03-22T08:02:14;21.00;58.40
58933;DHT22;44716;51.022;6.818;2023-03-22T08:04:40;21.00;58.80
58933;DHT22;44716;51.022;6.818;2023-03-22T08:07:05;21.00;58.40
58933;DHT22;44716;51.022;6.818;2023-03-22T08:09:34;21.00;58.70
58933;DHT22;44716;51.022;6.818;2023-03-22T08:12:00;21.00;58.80
58933;DHT22;44716;51.022;6.818;2023-03-22T08:14:26;21.00;58.60
58933;DHT22;44716;51.022;6.818;2023-03-22T08:16:51;21.00;57.60
58933;DHT22;44716;51.022;6.818;2023-03-22T08:19:17;21.00;58.30
58933;DHT22;44716;51.022;6.818;2023-03-22T08:21:42;21.00;57.20
58933;DHT22;44716;51.022;6.818;2023-03-22T08:24:08;21.00;58.00
58933;DHT22;44716;51.022;6.818;2023-03-22T08:26:33;20.90;57.70
58933;DHT22;44716;51.022;6.818;2023-03-22T08:29:00;20.90;57.90
58933;DHT22;44716;51.022;6.818;2023-03-22T08:31:25;20.90;58.50
58933;DHT22;44716;51.022;6.818;2023-03-22T08:33:51;21.20;58.40
58933;DHT22;44716;51.022;6.818;2023-03-22T08:36:19;21.60;58.20
58933;DHT22;44716;51.022;6.818;2023-03-22T08:38:45;21.70;57.50
58933;DHT22;44716;51.022;6.818;2023-03-22T08:41:11;21.80;57.90
58933;DHT22;44716;51.022;6.818;2023-03-22T08:43:43;21.80;57.90
58933;DHT22;44716;51.022;6.818;2023-03-22T08:46:08;21.80;57.30
58933;DHT22;44716;51.022;6.818;2023-03-22T08:48:34;21.80;57.80
58933;DHT22;44716;51.022;6.818;2023-03-22T08:51:02;21.80;57.90
58933;DHT22;44716;51.022;6.818;2023-03-22T08:53:29;21.70;58.50
58933;DHT22;44716;51.022;6.818;2023-03-22T08:55:54;21.70;58.20
58933;DHT22;44716;51.022;6.818;2023-03-22T08:58:22;21.70;58.30
58933;DHT22;44716;51.022;6.818;2023-03-22T09:00:48;21.70;58.60
58933;DHT22;44716;51.022;6.818;2023-03-22T09:03:13;21.60;58.70
58933;DHT22;44716;51.022;6.818;2023-03-22T09:05:40;21.60;58.80
58933;DHT22;44716;51.022;6.818;2023-03-22T09:08:09;21.60;58.90
58933;DHT22;44716;51.022;6.818;2023-03-22T09:10:36;21.60;58.90
58933;DHT22;44716;51.022;6.818;2023-03-22T09:13:02;21.70;58.80
58933;DHT22;44716;51.022;6.818;2023-03-22T09:15:29;21.70;58.70
58933;DHT22;44716;51.022;6.818;2023-03-22T09:17:55;21.70;58.50
58933;DHT22;44716;51.022;6.818;2023-03-22T09:20:20;21.70;58.70
58933;DHT22;44716;51.022;6.818;2023-03-22T09:22:50;21.60;58.70
58933;DHT22;44716;51.022;6.818;2023-03-22T09:25:15;21.60;58.80
58933;DHT22;44716;51.022;6.818;2023-03-22T09:27:41;21.60;58.90
58933;DHT22;44716;51.022;6.818;2023-03-22T09:30:06;21.60;58.90
58933;DHT22;44716;51.022;6.818;2023-03-22T09:32:32;21.60;59.00
58933;DHT22;44716;51.022;6.818;2023-03-22T09:34:58;21.60;59.00
58933;DHT22;44716;51.022;6.818;2023-03-22T09:37:24;21.60;59.10
58933;DHT22;44716;51.022;6.818;2023-03-22T09:39:57;21.60;59.20
58933;DHT22;44716;51.022;6.818;2023-03-22T09:42:31;21.60;59.10
58933;DHT22;44716;51.022;6.818;2023-03-22T09:44:57;21.60;59.10
58933;DHT22;44716;51.022;6.818;2023-03-22T09:47:27;21.60;59.00
58933;DHT22;44716;51.022;6.818;2023-03-22T09:49:56;21.60;59.10
58933;DHT22;44716;51.022;6.818;2023-03-22T09:52:26;21.60;59.20
58933;DHT22;44716;51.022;6.818;2023-03-22T09:54:52;21.50;59.30
58933;DHT22;44716;51.022;6.818;2023-03-22T10:05:11;21.40;59.50
58933;DHT22;44716;51.022;6.818;2023-03-22T10:10:21;21.40;59.60
58933;DHT22;44716;51.022;6.818;2023-03-22T10:15:14;21.40;59.70
58933;DHT22;44716;51.022;6.818;2023-03-22T10:17:43;21.50;59.60
58933;DHT22;44716;51.022;6.818;2023-03-22T10:20:18;21.40;59.70
58933;DHT22;44716;51.022;6.818;2023-03-22T10:22:45;21.40;59.60
58933;DHT22;44716;51.022;6.818;2023-03-22T10:25:14;21.40;59.50
58933;DHT22;44716;51.022;6.818;2023-03-22T10:27:45;21.40;59.60
58933;DHT22;44716;51.022;6.818;2023-03-22T10:30:26;21.40;59.70
58933;DHT22;44716;51.022;6.818;2023-03-22T10:33:03;21.40;59.60
58933;DHT22;44716;51.022;6.818;2023-03-22T10:35:36;21.40;59.50
58933;DHT22;44716;51.022;6.818;2023-03-22T10:38:02;21.40;59.50
58933;DHT22;44716;51.022;6.818;2023-03-22T10:40:30;21.50;59.50
58933;DHT22;44716;51.022;6.818;2023-03-22T10:43:03;21.50;59.00
58933;DHT22;44716;51.022;6.818;2023-03-22T10:45:32;21.50;59.50
58933;DHT22;44716;51.022;6.818;2023-03-22T10:50:35;21.50;59.60
58933;DHT22;44716;51.022;6.818;2023-03-22T10:53:05;21.50;59.60
58933;DHT22;44716;51.022;6.818;2023-03-22T10:55:31;21.50;59.60
58933;DHT22;44716;51.022;6.818;2023-03-22T10:58:09;21.50;59.70
58933;DHT22;44716;51.022;6.818;2023-03-22T11:00:36;21.50;59.70
58933;DHT22;44716;51.022;6.818;2023-03-22T11:03:02;21.50;59.80
58933;DHT22;44716;51.022;6.818;2023-03-22T11:05:29;21.40;59.80
58933;DHT22;44716;51.022;6.818;2023-03-22T11:07:56;21.50;59.70
58933;DHT22;44716;51.022;6.818;2023-03-22T11:10:30;21.50;59.80
58933;DHT22;44716;51.022;6.818;2023-03-22T11:13:12;21.50;59.80
58933;DHT22;44716;51.022;6.818;2023-03-22T11:15:39;21.40;59.50
58933;DHT22;44716;51.022;6.818;2023-03-22T11:20:41;21.60;59.30
58933;DHT22;44716;51.022;6.818;2023-03-22T11:23:10;21.70;59.50
58933;DHT22;44716;51.022;6.818;2023-03-22T11:25:42;21.70;58.60
58933;DHT22;44716;51.022;6.818;2023-03-22T11:28:14;21.60;59.30
58933;DHT22;44716;51.022;6.818;2023-03-22T11:33:22;21.60;59.40
58933;DHT22;44716;51.022;6.818;2023-03-22T11:35:58;21.60;59.50
58933;DHT22;44716;51.022;6.818;2023-03-22T11:38:25;21.50;58.70
58933;DHT22;44716;51.022;6.818;2023-03-22T11:40:55;21.60;58.20
58933;DHT22;44716;51.022;6.818;2023-03-22T11:43:30;21.60;59.10
58933;DHT22;44716;51.022;6.818;2023-03-22T11:45:57;21.60;58.90
58933;DHT22;44716;51.022;6.818;2023-03-22T11:48:23;21.60;59.00
58933;DHT22;44716;51.022;6.818;2023-03-22T11:50:57;21.60;59.20
58933;DHT22;44716;51.022;6.818;2023-03-22T11:53:23;21.60;59.00
58933;DHT22;44716;51.022;6.818;2023-03-22T11:55:51;21.60;58.10
58933;DHT22;44716;51.022;6.818;2023-03-22T11:58:21;21.50;59.40
58933;DHT22;44716;51.022;6.818;2023-03-22T12:00:48;21.50;59.20
58933;DHT22;44716;51.022;6.818;2023-03-22T12:03:17;21.50;58.50
58933;DHT22;44716;51.022;6.818;2023-03-22T12:05:45;21.40;58.80
58933;DHT22;44716;51.022;6.818;2023-03-22T12:11:06;21.40;59.40
58933;DHT22;44716;51.022;6.818;2023-03-22T12:16:25;21.40;59.10
58933;DHT22;44716;51.022;6.818;2023-03-22T12:21:24;21.40;58.80
58933;DHT22;44716;51.022;6.818;2023-03-22T12:23:50;21.40;57.60
58933;DHT22;44716;51.022;6.818;2023-03-22T12:26:19;21.40;58.50
58933;DHT22;44716;51.022;6.818;2023-03-22T12:28:59;21.40;57.70
58933;DHT22;44716;51.022;6.818;2023-03-22T12:31:26;21.40;57.30
58933;DHT22;44716;51.022;6.818;2023-03-22T12:33:54;21.40;58.30
58933;DHT22;44716;51.022;6.818;2023-03-22T12:36:24;21.30;57.40
58933;DHT22;44716;51.022;6.818;2023-03-22T12:38:53;21.30;58.30
58933;DHT22;44716;51.022;6.818;2023-03-22T12:43:55;21.40;58.60
58933;DHT22;44716;51.022;6.818;2023-03-22T12:46:23;21.30;57.90
58933;DHT22;44716;51.022;6.818;2023-03-22T12:51:19;21.60;60.50
58933;DHT22;44716;51.022;6.818;2023-03-22T12:53:46;21.80;62.00
58933;DHT22;44716;51.022;6.818;2023-03-22T12:56:20;22.30;58.20
58933;DHT22;44716;51.022;6.818;2023-03-22T12:58:51;22.60;59.90
58933;DHT22;44716;51.022;6.818;2023-03-22T13:01:19;22.70;60.20
58933;DHT22;44716;51.022;6.818;2023-03-22T13:03:47;22.60;60.40
58933;DHT22;44716;51.022;6.818;2023-03-22T13:11:33;22.70;60.60
58933;DHT22;44716;51.022;6.818;2023-03-22T13:13:59;22.70;59.60
58933;DHT22;44716;51.022;6.818;2023-03-22T13:16:41;22.70;59.00
58933;DHT22;44716;51.022;6.818;2023-03-22T13:22:13;22.60;58.90
58933;DHT22;44716;51.022;6.818;2023-03-22T13:27:31;22.40;58.90
58933;DHT22;44716;51.022;6.818;2023-03-22T13:29:59;22.40;59.20
58933;DHT22;44716;51.022;6.818;2023-03-22T13:32:29;22.30;59.30
58933;DHT22;44716;51.022;6.818;2023-03-22T13:34:57;22.30;59.30
58933;DHT22;44716;51.022;6.818;2023-03-22T13:37:33;22.20;59.40
58933;DHT22;44716;51.022;6.818;2023-03-22T13:40:01;22.20;59.20
58933;DHT22;44716;51.022;6.818;2023-03-22T13:42:39;22.20;59.40
58933;DHT22;44716;51.022;6.818;2023-03-22T13:45:07;22.20;59.20
58933;DHT22;44716;51.022;6.818;2023-03-22T13:50:09;22.20;59.00
58933;DHT22;44716;51.022;6.818;2023-03-22T13:52:40;22.20;58.70
58933;DHT22;44716;51.022;6.818;2023-03-22T13:55:13;22.20;59.30
58933;DHT22;44716;51.022;6.818;2023-03-22T13:57:45;22.30;58.20
58933;DHT22;44716;51.022;6.818;2023-03-22T14:02:43;22.40;58.20
58933;DHT22;44716;51.022;6.818;2023-03-22T14:05:19;22.40;58.40
58933;DHT22;44716;51.022;6.818;2023-03-22T14:07:54;22.40;57.70
58933;DHT22;44716;51.022;6.818;2023-03-22T14:10:40;22.30;58.40
58933;DHT22;44716;51.022;6.818;2023-03-22T14:15:55;22.20;58.60
58933;DHT22;44716;51.022;6.818;2023-03-22T14:18:29;22.20;58.50
58933;DHT22;44716;51.022;6.818;2023-03-22T14:21:15;22.10;57.90
58933;DHT22;44716;51.022;6.818;2023-03-22T14:23:43;22.10;58.40
58933;DHT22;44716;51.022;6.818;2023-03-22T14:26:26;22.10;58.10
58933;DHT22;44716;51.022;6.818;2023-03-22T14:28:53;22.00;58.40
58933;DHT22;44716;51.022;6.818;2023-03-22T14:31:28;22.00;58.30
58933;DHT22;44716;51.022;6.818;2023-03-22T14:33:54;22.00;58.80
58933;DHT22;44716;51.022;6.818;2023-03-22T14:36:21;21.90;58.00
58933;DHT22;44716;51.022;6.818;2023-03-22T14:38:48;21.90;58.50
58933;DHT22;44716;51.022;6.818;2023-03-22T14:41:18;21.90;58.80
58933;DHT22;44716;51.022;6.818;2023-03-22T14:43:44;21.90;58.90
58933;DHT22;44716;51.022;6.818;2023-03-22T14:46:18;21.90;58.00
58933;DHT22;44716;51.022;6.818;2023-03-22T14:48:48;21.90;59.00
58933;DHT22;44716;51.022;6.818;2023-03-22T14:51:16;21.90;58.30
58933;DHT22;44716;51.022;6.818;2023-03-22T14:53:44;21.90;58.70
58933;DHT22;44716;51.022;6.818;2023-03-22T14:56:15;21.90;57.50
58933;DHT22;44716;51.022;6.818;2023-03-22T14:58:42;21.90;58.00
58933;DHT22;44716;51.022;6.818;2023-03-22T15:01:11;21.90;57.70
58933;DHT22;44716;51.022;6.818;2023-03-22T15:03:39;21.90;56.90
58933;DHT22;44716;51.022;6.818;2023-03-22T15:06:08;21.90;57.70
58933;DHT22;44716;51.022;6.818;2023-03-22T15:08:47;21.90;58.00
58933;DHT22;44716;51.022;6.818;2023-03-22T15:11:13;21.80;57.60
58933;DHT22;44716;51.022;6.818;2023-03-22T15:13:39;21.80;57.00
58933;DHT22;44716;51.022;6.818;2023-03-22T15:16:05;21.80;57.30
58933;DHT22;44716;51.022;6.818;2023-03-22T15:18:32;21.80;58.00
58933;DHT22;44716;51.022;6.818;2023-03-22T15:20:59;21.80;58.90
58933;DHT22;44716;51.022;6.818;2023-03-22T15:25:57;21.90;59.80
58933;DHT22;44716;51.022;6.818;2023-03-22T15:28:28;22.00;59.30
58933;DHT22;44716;51.022;6.818;2023-03-22T15:30:54;22.10;59.80
58933;DHT22;44716;51.022;6.818;2023-03-22T15:35:49;22.10;60.70
58933;DHT22;44716;51.022;6.818;2023-03-22T15:38:25;21.90;62.00
58933;DHT22;44716;51.022;6.818;2023-03-22T15:40:52;21.70;60.40
58933;DHT22;44716;51.022;6.818;2023-03-22T15:43:22;21.70;61.60
58933;DHT22;44716;51.022;6.818;2023-03-22T15:51:17;21.90;63.80
58933;DHT22;44716;51.022;6.818;2023-03-22T15:53:44;21.90;63.80
58933;DHT22;44716;51.022;6.818;2023-03-22T15:56:44;21.80;64.20
58933;DHT22;44716;51.022;6.818;2023-03-22T15:59:15;21.90;61.80
58933;DHT22;44716;51.022;6.818;2023-03-22T16:01:42;22.10;62.40
58933;DHT22;44716;51.022;6.818;2023-03-22T16:04:09;22.20;62.20
58933;DHT22;44716;51.022;6.818;2023-03-22T16:06:35;22.40;60.60
58933;DHT22;44716;51.022;6.818;2023-03-22T16:09:01;22.70;60.20
58933;DHT22;44716;51.022;6.818;2023-03-22T16:11:28;22.90;59.90
58933;DHT22;44716;51.022;6.818;2023-03-22T16:13:54;23.10;59.10
58933;DHT22;44716;51.022;6.818;2023-03-22T16:16:22;23.10;59.70
58933;DHT22;44716;51.022;6.818;2023-03-22T16:18:48;23.10;60.10
58933;DHT22;44716;51.022;6.818;2023-03-22T16:21:13;23.00;60.60
58933;DHT22;44716;51.022;6.818;2023-03-22T16:23:39;22.90;60.50
58933;DHT22;44716;51.022;6.818;2023-03-22T16:26:08;22.80;61.30
58933;DHT22;44716;51.022;6.818;2023-03-22T16:28:36;22.80;62.20
58933;DHT22;44716;51.022;6.818;2023-03-22T16:31:02;22.80;62.10
58933;DHT22;44716;51.022;6.818;2023-03-22T16:33:28;22.70;61.60
58933;DHT22;44716;51.022;6.818;2023-03-22T16:35:53;22.60;62.40
58933;DHT22;44716;51.022;6.818;2023-03-22T16:38:19;22.60;61.50
58933;DHT22;44716;51.022;6.818;2023-03-22T16:40:50;22.50;62.70
58933;DHT22;44716;51.022;6.818;2023-03-22T16:43:16;22.50;61.40
58933;DHT22;44716;51.022;6.818;2023-03-22T16:45:42;22.40;62.00
58933;DHT22;44716;51.022;6.818;2023-03-22T16:48:11;22.40;61.50
58933;DHT22;44716;51.022;6.818;2023-03-22T16:50:38;22.40;60.80
58933;DHT22;44716;51.022;6.818;2023-03-22T16:53:04;22.40;60.70
58933;DHT22;44716;51.022;6.818;2023-03-22T16:55:31;22.40;61.10
58933;DHT22;44716;51.022;6.818;2023-03-22T16:57:57;22.40;60.70
58933;DHT22;44716;51.022;6.818;2023-03-22T17:00:23;22.40;60.40
58933;DHT22;44716;51.022;6.818;2023-03-22T17:02:50;22.40;59.90
58933;DHT22;44716;51.022;6.818;2023-03-22T17:05:17;22.30;59.90
58933;DHT22;44716;51.022;6.818;2023-03-22T17:07:47;22.30;60.00
58933;DHT22;44716;51.022;6.818;2023-03-22T17:10:13;22.30;59.80
58933;DHT22;44716;51.022;6.818;2023-03-22T17:12:38;22.30;60.60
58933;DHT22;44716;51.022;6.818;2023-03-22T17:17:48;22.30;59.70
58933;DHT22;44716;51.022;6.818;2023-03-22T17:20:14;22.30;58.80